Time;durP1;ratioP1;P1;durP2;ratioP2;P2;SDS_P1;SDS_P2;PMS_P1;PMS_P2;Temp;Humidity;BMP_temperature;BMP_pressure;BME280_temperature;BME280_humidity;BME280_pressure;Samples;Min_cycle;Max_cycle;Signal;HPM_P1;HPM_P2
2022/03/29 00:01:09;;;;;;;;;;;23.60;31.80;;;;;;1557646;74;786;-66
2022/03/29 00:03:10;;;;;;;;;;;23.60;31.80;;;;;;1540594;75;1160;-66
2022/03/29 00:05:12;;;;;;;;;;;23.60;31.80;;;;;;1587663;75;795;-66
2022/03/29 00:07:14;;;;;;;;;;;23.60;31.80;;;;;;1587729;75;1937;-66
2022/03/29 00:09:16;;;;;;;;;;;23.60;31.80;;;;;;1587735;75;648;-67
2022/03/29 00:11:18;;;;;;;;;;;23.60;31.80;;;;;;1587786;75;832;-66
2022/03/29 00:13:20;;;;;;;;;;;23.60;31.90;;;;;;1572055;75;1138;-66
2022/03/29 00:15:22;;;;;;;;;;;23.60;31.80;;;;;;1560405;76;792;-65
2022/03/29 00:17:24;;;;;;;;;;;23.60;31.90;;;;;;1560548;76;739;-65
2022/03/29 00:19:25;;;;;;;;;;;23.60;31.80;;;;;;1560638;76;738;-66
2022/03/29 00:21:27;;;;;;;;;;;23.60;31.80;;;;;;1596180;73;805;-65
2022/03/29 00:23:29;;;;;;;;;;;23.60;31.80;;;;;;1577143;73;1169;-65
2022/03/29 00:25:31;;;;;;;;;;;23.70;32.00;;;;;;1578726;75;768;-65
2022/03/29 00:27:35;;;;;;;;;;;23.60;31.80;;;;;;1587638;75;1953;-67
2022/03/29 00:29:37;;;;;;;;;;;23.60;31.90;;;;;;1587602;75;1680;-67
2022/03/29 00:31:39;;;;;;;;;;;23.60;32.00;;;;;;1587558;75;780;-65
2022/03/29 00:33:41;;;;;;;;;;;23.60;32.00;;;;;;1586486;75;1181;-65
2022/03/29 00:35:43;;;;;;;;;;;23.50;32.10;;;;;;1587739;75;773;-65
2022/03/29 00:37:44;;;;;;;;;;;23.60;32.00;;;;;;1587643;75;918;-65
2022/03/29 00:39:46;;;;;;;;;;;23.50;32.10;;;;;;1587689;75;704;-65
2022/03/29 00:41:48;;;;;;;;;;;23.50;32.10;;;;;;1586769;75;773;-65
2022/03/29 00:43:50;;;;;;;;;;;23.50;32.10;;;;;;1587599;75;1065;-66
2022/03/29 00:45:52;;;;;;;;;;;23.60;32.10;;;;;;1587695;75;801;-65
2022/03/29 00:47:54;;;;;;;;;;;23.50;32.20;;;;;;1587639;75;1929;-65
2022/03/29 00:49:56;;;;;;;;;;;23.50;32.20;;;;;;1587792;75;721;-65
2022/03/29 00:51:59;;;;;;;;;;;23.50;32.20;;;;;;1586343;75;727;-65
2022/03/29 00:54:01;;;;;;;;;;;23.50;32.30;;;;;;1587537;75;1139;-65
2022/03/29 00:56:03;;;;;;;;;;;23.50;32.20;;;;;;1586639;75;665;-65
2022/03/29 00:58:07;;;;;;;;;;;23.50;32.30;;;;;;1587736;75;796;-66
2022/03/29 01:00:10;;;;;;;;;;;23.60;32.30;;;;;;1587476;75;1490;-65
2022/03/29 01:02:11;;;;;;;;;;;23.60;32.30;;;;;;1587587;75;754;-65
2022/03/29 01:04:14;;;;;;;;;;;23.50;32.30;;;;;;1586507;75;1146;-65
2022/03/29 01:06:16;;;;;;;;;;;23.50;32.40;;;;;;1587514;75;1911;-65
2022/03/29 01:08:17;;;;;;;;;;;23.50;32.40;;;;;;1587730;75;733;-67
2022/03/29 01:10:19;;;;;;;;;;;23.50;32.40;;;;;;1587710;75;800;-65
2022/03/29 01:12:22;;;;;;;;;;;23.50;32.50;;;;;;1586581;75;714;-65
2022/03/29 01:14:25;;;;;;;;;;;23.50;32.50;;;;;;1587609;75;1244;-66
2022/03/29 01:18:46;;;;;;;;;;;23.50;32.50;;;;;;1587697;75;1682;-65
2022/03/29 01:20:49;;;;;;;;;;;23.50;32.50;;;;;;1595622;73;864;-66
2022/03/29 01:22:52;;;;;;;;;;;23.50;32.50;;;;;;1580783;73;1175;-65
2022/03/29 01:24:54;;;;;;;;;;;23.50;32.60;;;;;;1576968;75;646;-65
2022/03/29 01:27:00;;;;;;;;;;;23.60;32.50;;;;;;1555273;76;1938;-65
2022/03/29 01:29:02;;;;;;;;;;;23.50;32.50;;;;;;1556723;75;1409;-61
2022/03/29 01:31:04;;;;;;;;;;;23.60;32.40;;;;;;1584942;75;710;-63
2022/03/29 01:33:06;;;;;;;;;;;23.60;32.40;;;;;;1565147;75;1097;-65
2022/03/29 01:35:08;;;;;;;;;;;23.60;32.30;;;;;;1560566;76;719;-66
2022/03/29 01:37:10;;;;;;;;;;;23.60;32.30;;;;;;1560656;76;796;-65
2022/03/29 01:39:12;;;;;;;;;;;23.60;32.30;;;;;;1567850;73;719;-65
2022/03/29 01:41:14;;;;;;;;;;;23.60;32.30;;;;;;1586756;75;806;-65
2022/03/29 01:43:16;;;;;;;;;;;23.60;32.30;;;;;;1587809;75;1095;-65
2022/03/29 01:45:18;;;;;;;;;;;23.60;32.30;;;;;;1587925;75;799;-66
2022/03/29 01:47:21;;;;;;;;;;;23.70;32.30;;;;;;1587908;75;1941;-65
2022/03/29 01:49:23;;;;;;;;;;;23.70;32.30;;;;;;1587690;75;738;-65
2022/03/29 01:51:25;;;;;;;;;;;23.70;32.20;;;;;;1586668;75;785;-65
2022/03/29 01:53:27;;;;;;;;;;;23.90;32.30;;;;;;1588001;75;1119;-65
2022/03/29 01:55:29;;;;;;;;;;;23.70;32.10;;;;;;1587142;75;773;-65
2022/03/29 01:57:31;;;;;;;;;;;23.80;32.10;;;;;;1588066;75;781;-65
2022/03/29 02:00:30;;;;;;;;;;;23.80;32.10;;;;;;1587812;75;752;-64
2022/03/29 02:01:43;;;;;;;;;;;23.80;32.10;;;;;;1584673;73;1556;-66
2022/03/29 02:03:45;;;;;;;;;;;23.80;32.10;;;;;;1587301;75;1171;-65
2022/03/29 02:05:47;;;;;;;;;;;23.80;32.10;;;;;;1587810;75;776;-66
2022/03/29 02:07:50;;;;;;;;;;;23.80;32.10;;;;;;1587861;75;1949;-65
2022/03/29 02:09:52;;;;;;;;;;;23.70;32.10;;;;;;1587908;75;723;-66
2022/03/29 02:11:54;;;;;;;;;;;23.70;32.10;;;;;;1575214;75;770;-65
2022/03/29 02:13:56;;;;;;;;;;;23.70;32.10;;;;;;1560548;76;1142;-67
2022/03/29 02:15:58;;;;;;;;;;;23.70;32.20;;;;;;1560473;76;751;-67
2022/03/29 02:17:59;;;;;;;;;;;23.70;32.20;;;;;;1560623;76;745;-65
2022/03/29 02:20:02;;;;;;;;;;;23.70;32.20;;;;;;1561386;75;711;-65
2022/03/29 02:22:04;;;;;;;;;;;23.70;32.20;;;;;;1560575;76;731;-65
2022/03/29 02:24:06;;;;;;;;;;;23.70;32.30;;;;;;1560580;75;1059;-66
2022/03/29 02:26:08;;;;;;;;;;;23.80;32.30;;;;;;1587121;75;834;-68
2022/03/29 02:28:10;;;;;;;;;;;23.70;32.20;;;;;;1587789;75;1945;-65
2022/03/29 02:30:13;;;;;;;;;;;23.80;32.20;;;;;;1568870;75;701;-66
2022/03/29 02:32:15;;;;;;;;;;;23.80;32.20;;;;;;1572997;75;787;-67
2022/03/29 02:34:17;;;;;;;;;;;23.80;32.30;;;;;;1587935;75;1136;-66
2022/03/29 02:36:18;;;;;;;;;;;23.80;32.30;;;;;;1588173;75;729;-66
2022/03/29 02:38:20;;;;;;;;;;;23.80;32.60;;;;;;1588053;75;734;-66
2022/03/29 02:40:22;;;;;;;;;;;23.60;32.80;;;;;;1577478;75;773;-66
2022/03/29 02:42:24;;;;;;;;;;;23.60;33.10;;;;;;1560840;76;703;-65
2022/03/29 02:44:27;;;;;;;;;;;23.50;33.40;;;;;;1560728;76;1114;-66
2022/03/29 02:46:29;;;;;;;;;;;23.40;33.40;;;;;;1560794;76;683;-65
2022/03/29 02:48:31;;;;;;;;;;;23.50;33.80;;;;;;1574649;75;1899;-65
2022/03/29 02:50:33;;;;;;;;;;;23.40;33.90;;;;;;1587184;75;743;-65
2022/03/29 02:52:36;;;;;;;;;;;23.40;33.90;;;;;;1587955;75;797;-64
2022/03/29 02:54:38;;;;;;;;;;;23.30;34.10;;;;;;1571542;72;2076;-64
2022/03/29 02:56:40;;;;;;;;;;;23.40;34.30;;;;;;1568015;76;727;-63
2022/03/29 02:58:42;;;;;;;;;;;23.40;34.40;;;;;;1567984;75;797;-63
2022/03/29 03:00:44;;;;;;;;;;;23.40;34.50;;;;;;1567945;76;714;-62
2022/03/29 03:02:46;;;;;;;;;;;23.40;34.60;;;;;;1568020;76;727;-65
2022/03/29 03:04:48;;;;;;;;;;;23.40;34.50;;;;;;1567756;74;1282;-66
2022/03/29 03:06:50;;;;;;;;;;;23.30;34.60;;;;;;1567810;76;710;-65
2022/03/29 03:08:52;;;;;;;;;;;23.40;34.80;;;;;;1566973;76;1936;-67
2022/03/29 03:10:54;;;;;;;;;;;23.30;34.70;;;;;;1559748;75;721;-65
2022/03/29 03:12:56;;;;;;;;;;;23.40;34.60;;;;;;1545008;74;710;-65
2022/03/29 03:14:57;;;;;;;;;;;23.40;34.50;;;;;;1567876;74;1116;-65
2022/03/29 03:16:59;;;;;;;;;;;23.40;34.50;;;;;;1567881;76;700;-66
2022/03/29 03:19:01;;;;;;;;;;;23.40;34.40;;;;;;1544400;76;723;-65
2022/03/29 03:21:03;;;;;;;;;;;23.30;34.40;;;;;;1541588;77;772;-64
2022/03/29 03:23:05;;;;;;;;;;;23.40;34.70;;;;;;1541529;77;715;-63
2022/03/29 03:25:07;;;;;;;;;;;23.40;34.70;;;;;;1542970;76;786;-63
2022/03/29 03:27:09;;;;;;;;;;;23.50;34.80;;;;;;1558663;76;1939;-65
2022/03/29 03:29:11;;;;;;;;;;;23.50;34.80;;;;;;1567482;75;825;-65
2022/03/29 03:31:13;;;;;;;;;;;23.60;35.00;;;;;;1567627;76;708;-63
2022/03/29 03:33:15;;;;;;;;;;;23.50;35.00;;;;;;1563729;75;1085;-66
2022/03/29 03:35:17;;;;;;;;;;;23.60;34.90;;;;;;1559828;75;695;-65
2022/03/29 03:37:19;;;;;;;;;;;23.60;34.70;;;;;;1565018;75;702;-69
2022/03/29 03:39:20;;;;;;;;;;;23.50;34.70;;;;;;1564255;75;752;-65
2022/03/29 03:41:22;;;;;;;;;;;23.50;34.70;;;;;;1564322;75;779;-65
2022/03/29 03:43:24;;;;;;;;;;;23.60;34.70;;;;;;1563143;74;1137;-65
2022/03/29 03:45:26;;;;;;;;;;;23.60;34.70;;;;;;1563271;75;820;-65
2022/03/29 03:47:28;;;;;;;;;;;23.50;34.70;;;;;;1557222;76;1929;-64
2022/03/29 03:49:30;;;;;;;;;;;23.50;34.60;;;;;;1564649;76;576;-67
2022/03/29 03:51:32;;;;;;;;;;;23.50;34.50;;;;;;1543120;76;694;-66
2022/03/29 03:53:34;;;;;;;;;;;23.60;34.60;;;;;;1541812;76;1117;-65
2022/03/29 03:55:35;;;;;;;;;;;23.60;34.60;;;;;;1543422;76;738;-69
2022/03/29 03:57:37;;;;;;;;;;;23.50;34.60;;;;;;1563310;75;738;-64
2022/03/29 03:59:39;;;;;;;;;;;23.60;34.60;;;;;;1562512;75;745;-64
2022/03/29 04:01:41;;;;;;;;;;;23.50;34.50;;;;;;1562457;75;800;-65
2022/03/29 04:03:43;;;;;;;;;;;23.60;34.50;;;;;;1559268;75;1171;-66
2022/03/29 04:05:45;;;;;;;;;;;23.60;34.50;;;;;;1563244;75;712;-66
2022/03/29 04:07:47;;;;;;;;;;;23.60;34.70;;;;;;1566199;76;1907;-66
2022/03/29 04:09:48;;;;;;;;;;;23.50;34.70;;;;;;1562171;75;727;-65
2022/03/29 04:11:51;;;;;;;;;;;23.50;34.70;;;;;;1562956;75;733;-66
2022/03/29 04:13:54;;;;;;;;;;;23.60;34.70;;;;;;1562706;75;1167;-66
2022/03/29 04:15:55;;;;;;;;;;;23.60;34.80;;;;;;1563944;75;790;-66
2022/03/29 04:18:00;;;;;;;;;;;23.60;34.80;;;;;;1566016;75;672;-65
2022/03/29 04:20:01;;;;;;;;;;;23.60;34.70;;;;;;1561839;75;1601;-64
2022/03/29 04:22:03;;;;;;;;;;;23.50;35.00;;;;;;1562602;75;781;-64
2022/03/29 04:24:05;;;;;;;;;;;23.60;35.10;;;;;;1562390;75;1133;-63
2022/03/29 04:26:07;;;;;;;;;;;23.60;35.00;;;;;;1561338;75;738;-64
2022/03/29 04:28:09;;;;;;;;;;;23.60;35.00;;;;;;1564449;74;1927;-64
2022/03/29 04:30:11;;;;;;;;;;;23.60;34.90;;;;;;1563373;75;841;-65
2022/03/29 04:32:14;;;;;;;;;;;23.60;35.00;;;;;;1562871;75;781;-62
2022/03/29 04:34:15;;;;;;;;;;;23.60;35.00;;;;;;1564137;74;1176;-63
2022/03/29 04:36:17;;;;;;;;;;;23.60;35.00;;;;;;1564186;75;731;-65
2022/03/29 04:38:19;;;;;;;;;;;23.60;34.90;;;;;;1563337;75;704;-66
2022/03/29 04:40:21;;;;;;;;;;;23.60;34.80;;;;;;1564832;75;778;-65
2022/03/29 04:42:23;;;;;;;;;;;23.60;35.00;;;;;;1566429;76;685;-64
2022/03/29 04:44:25;;;;;;;;;;;23.60;35.10;;;;;;1567443;74;1166;-65
2022/03/29 04:46:27;;;;;;;;;;;23.70;35.20;;;;;;1567318;75;821;-66
2022/03/29 04:48:29;;;;;;;;;;;23.60;35.00;;;;;;1560550;76;1896;-62
2022/03/29 04:50:31;;;;;;;;;;;23.60;35.20;;;;;;1562500;76;773;-64
2022/03/29 04:52:33;;;;;;;;;;;23.70;35.10;;;;;;1568146;76;719;-61
2022/03/29 04:54:35;;;;;;;;;;;23.60;34.70;;;;;;1563140;76;1117;-62
2022/03/29 04:56:37;;;;;;;;;;;23.60;34.40;;;;;;1541567;77;699;-62
2022/03/29 04:58:39;;;;;;;;;;;23.60;34.30;;;;;;1541619;77;756;-63
2022/03/29 05:00:41;;;;;;;;;;;23.60;34.20;;;;;;1541699;77;720;-62
2022/03/29 05:02:46;;;;;;;;;;;23.70;34.20;;;;;;1543063;76;700;-62
2022/03/29 05:04:49;;;;;;;;;;;23.60;34.00;;;;;;1541771;76;1149;-69
2022/03/29 05:06:51;;;;;;;;;;;23.60;34.00;;;;;;1541594;77;773;-63
2022/03/29 05:08:53;;;;;;;;;;;23.60;34.00;;;;;;1541447;77;1937;-66
2022/03/29 05:10:55;;;;;;;;;;;23.60;34.00;;;;;;1564288;75;688;-66
2022/03/29 05:12:56;;;;;;;;;;;23.60;34.20;;;;;;1559808;76;738;-65
2022/03/29 05:14:59;;;;;;;;;;;23.60;34.30;;;;;;1567958;76;1123;-64
2022/03/29 05:17:01;;;;;;;;;;;23.60;34.40;;;;;;1568127;76;723;-67
2022/03/29 05:19:03;;;;;;;;;;;23.60;34.50;;;;;;1566906;76;879;-66
2022/03/29 05:21:05;;;;;;;;;;;23.60;34.40;;;;;;1567300;76;781;-65
2022/03/29 05:23:08;;;;;;;;;;;23.70;34.50;;;;;;1566611;74;1132;-68
2022/03/29 05:25:10;;;;;;;;;;;23.70;34.40;;;;;;1567314;76;626;-67
2022/03/29 05:27:11;;;;;;;;;;;23.70;34.30;;;;;;1564685;75;742;-65
2022/03/29 05:29:13;;;;;;;;;;;23.70;34.30;;;;;;1562388;75;1946;-66
2022/03/29 05:31:15;;;;;;;;;;;23.60;34.10;;;;;;1563422;75;794;-64
2022/03/29 05:33:18;;;;;;;;;;;23.60;34.10;;;;;;1562541;75;1179;-64
2022/03/29 05:35:20;;;;;;;;;;;23.60;34.10;;;;;;1562978;74;794;-65
2022/03/29 05:37:22;;;;;;;;;;;23.60;34.10;;;;;;1563504;76;719;-63
2022/03/29 05:39:24;;;;;;;;;;;23.70;34.20;;;;;;1567481;76;715;-67
2022/03/29 05:41:26;;;;;;;;;;;23.60;34.00;;;;;;1566597;76;711;-63
2022/03/29 05:43:28;;;;;;;;;;;23.70;34.10;;;;;;1567577;74;1093;-68
2022/03/29 05:45:30;;;;;;;;;;;23.60;33.90;;;;;;1561458;75;779;-67
2022/03/29 05:49:52;;;;;;;;;;;23.70;34.10;;;;;;1560853;75;1924;-69
2022/03/29 05:51:54;;;;;;;;;;;23.60;33.90;;;;;;1560423;75;729;-65
2022/03/29 05:53:56;;;;;;;;;;;23.70;34.10;;;;;;1562411;75;1200;-69
2022/03/29 05:55:58;;;;;;;;;;;23.70;34.00;;;;;;1561447;75;784;-66
2022/03/29 05:58:00;;;;;;;;;;;23.60;33.90;;;;;;1562555;75;758;-66
2022/03/29 06:00:02;;;;;;;;;;;23.70;34.00;;;;;;1562411;75;678;-66
2022/03/29 06:02:04;;;;;;;;;;;23.70;33.90;;;;;;1562478;75;706;-69
2022/03/29 06:04:11;;;;;;;;;;;23.70;34.00;;;;;;1564098;75;1156;-67
2022/03/29 06:06:10;;;;;;;;;;;23.70;33.90;;;;;;1561535;75;1089;-65
2022/03/29 06:08:12;;;;;;;;;;;23.60;33.80;;;;;;1562380;75;1936;-67
2022/03/29 06:10:14;;;;;;;;;;;23.60;33.80;;;;;;1562785;75;780;-65
2022/03/29 06:12:18;;;;;;;;;;;23.60;33.70;;;;;;1563850;75;726;-63
2022/03/29 06:14:20;;;;;;;;;;;23.70;33.90;;;;;;1561513;75;1565;-68
2022/03/29 06:16:22;;;;;;;;;;;23.60;33.90;;;;;;1567040;76;725;-70
2022/03/29 06:18:24;;;;;;;;;;;23.80;33.60;;;;;;1563108;75;741;-70
2022/03/29 06:20:26;;;;;;;;;;;24.20;33.10;;;;;;1567742;76;652;-70
2022/03/29 06:22:28;;;;;;;;;;;24.20;32.40;;;;;;1568083;76;748;-71
2022/03/29 06:24:31;;;;;;;;;;;24.20;32.00;;;;;;1550278;76;1149;-70
2022/03/29 06:26:34;;;;;;;;;;;24.20;31.80;;;;;;1541620;77;765;-72
2022/03/29 06:28:36;;;;;;;;;;;24.20;31.50;;;;;;1541550;77;1920;-70
2022/03/29 06:30:38;;;;;;;;;;;24.10;31.40;;;;;;1541589;77;656;-72
2022/03/29 06:32:47;;;;;;;;;;;24.00;31.10;;;;;;1541832;77;766;-69
2022/03/29 06:34:49;;;;;;;;;;;24.00;31.00;;;;;;1543155;76;1177;-69
2022/03/29 06:36:51;;;;;;;;;;;24.00;30.80;;;;;;1546161;76;720;-68
2022/03/29 06:38:53;;;;;;;;;;;24.00;30.60;;;;;;1567139;76;794;-70
2022/03/29 06:40:55;;;;;;;;;;;23.90;30.40;;;;;;1562396;76;775;-69
2022/03/29 06:42:57;;;;;;;;;;;23.90;30.30;;;;;;1563267;74;695;-70
2022/03/29 06:44:59;;;;;;;;;;;23.80;30.00;;;;;;1563900;74;1123;-69
2022/03/29 06:47:01;;;;;;;;;;;23.80;29.90;;;;;;1555727;74;800;-68
2022/03/29 06:49:04;;;;;;;;;;;23.80;29.80;;;;;;1563205;76;1920;-70
2022/03/29 06:51:06;;;;;;;;;;;23.80;29.70;;;;;;1561500;74;767;-69
2022/03/29 06:53:08;;;;;;;;;;;23.70;29.60;;;;;;1563062;74;1128;-71
2022/03/29 06:55:11;;;;;;;;;;;23.70;29.40;;;;;;1565106;76;778;-71
2022/03/29 06:57:14;;;;;;;;;;;23.70;29.30;;;;;;1563467;76;773;-73
2022/03/29 06:59:16;;;;;;;;;;;23.70;29.20;;;;;;1566851;76;744;-68
2022/03/29 07:01:18;;;;;;;;;;;23.70;29.20;;;;;;1566704;74;758;-69
2022/03/29 07:03:21;;;;;;;;;;;23.70;29.00;;;;;;1561203;74;1216;-70
2022/03/29 07:05:23;;;;;;;;;;;23.70;29.00;;;;;;1561522;76;738;-70
2022/03/29 07:07:25;;;;;;;;;;;23.60;28.70;;;;;;1560827;76;759;-69
2022/03/29 07:11:47;;;;;;;;;;;23.70;28.70;;;;;;1561405;76;1626;-69
2022/03/29 07:13:49;;;;;;;;;;;23.70;28.60;;;;;;1567543;76;1182;-70
2022/03/29 07:15:51;;;;;;;;;;;23.60;28.40;;;;;;1567702;76;736;-70
2022/03/29 07:17:53;;;;;;;;;;;23.70;28.40;;;;;;1563888;74;802;-70
2022/03/29 07:19:55;;;;;;;;;;;23.70;28.30;;;;;;1559949;74;752;-70
2022/03/29 07:21:57;;;;;;;;;;;23.70;28.30;;;;;;1565644;74;781;-72
2022/03/29 07:23:59;;;;;;;;;;;23.70;28.10;;;;;;1562625;75;1156;-69
2022/03/29 07:26:01;;;;;;;;;;;23.70;28.10;;;;;;1562488;76;702;-70
2022/03/29 07:28:02;;;;;;;;;;;23.70;28.10;;;;;;1558746;74;671;-69
2022/03/29 07:30:05;;;;;;;;;;;23.70;28.00;;;;;;1563795;76;1939;-69
2022/03/29 07:32:07;;;;;;;;;;;23.70;28.00;;;;;;1564231;76;739;-69
2022/03/29 07:34:08;;;;;;;;;;;23.60;27.80;;;;;;1561393;75;1137;-72
2022/03/29 07:36:10;;;;;;;;;;;23.60;27.80;;;;;;1553335;76;723;-71
2022/03/29 07:38:13;;;;;;;;;;;23.70;27.80;;;;;;1554222;74;811;-71
2022/03/29 07:40:15;;;;;;;;;;;23.70;27.80;;;;;;1558902;74;675;-70
2022/03/29 07:42:17;;;;;;;;;;;23.60;27.70;;;;;;1566990;76;792;-70
2022/03/29 07:44:19;;;;;;;;;;;23.60;27.70;;;;;;1563315;74;1155;-71
2022/03/29 07:46:21;;;;;;;;;;;23.70;27.80;;;;;;1562763;76;733;-71
2022/03/29 07:48:23;;;;;;;;;;;23.60;27.70;;;;;;1565658;76;787;-72
2022/03/29 07:50:26;;;;;;;;;;;23.50;27.60;;;;;;1563228;74;1908;-72
2022/03/29 07:52:28;;;;;;;;;;;23.60;27.70;;;;;;1562256;74;663;-71
2022/03/29 07:54:30;;;;;;;;;;;23.60;27.60;;;;;;1562099;75;1145;-70
2022/03/29 07:56:32;;;;;;;;;;;23.60;27.70;;;;;;1566305;76;772;-70
2022/03/29 07:58:33;;;;;;;;;;;23.60;27.70;;;;;;1563452;74;755;-72
2022/03/29 08:00:36;;;;;;;;;;;23.60;27.80;;;;;;1563535;75;607;-70
2022/03/29 08:02:37;;;;;;;;;;;23.60;27.70;;;;;;1567523;76;730;-69
2022/03/29 08:04:39;;;;;;;;;;;23.60;27.80;;;;;;1563088;74;1149;-73
2022/03/29 08:06:41;;;;;;;;;;;23.70;27.90;;;;;;1559720;74;758;-69
2022/03/29 08:08:43;;;;;;;;;;;23.70;27.90;;;;;;1564548;74;703;-72
2022/03/29 08:10:46;;;;;;;;;;;23.60;27.80;;;;;;1548102;74;655;-71
2022/03/29 08:12:48;;;;;;;;;;;23.60;27.90;;;;;;1561623;74;713;-68
2022/03/29 08:14:50;;;;;;;;;;;23.70;28.00;;;;;;1556955;74;1159;-71
2022/03/29 08:16:53;;;;;;;;;;;23.60;27.80;;;;;;1562791;76;746;-73
2022/03/29 08:18:56;;;;;;;;;;;23.70;27.90;;;;;;1556812;74;706;-72
2022/03/29 08:20:58;;;;;;;;;;;23.60;27.80;;;;;;1558411;76;727;-71
2022/03/29 08:23:00;;;;;;;;;;;23.60;27.80;;;;;;1555844;74;720;-71
2022/03/29 08:25:02;;;;;;;;;;;23.70;27.90;;;;;;1557287;74;1087;-71
2022/03/29 08:27:05;;;;;;;;;;;23.70;28.00;;;;;;1562280;76;736;-71
2022/03/29 08:29:07;;;;;;;;;;;23.70;28.00;;;;;;1550707;76;1913;-70
2022/03/29 08:31:09;;;;;;;;;;;23.70;28.00;;;;;;1555078;74;719;-71
2022/03/29 08:33:11;;;;;;;;;;;23.70;28.00;;;;;;1548125;74;1079;-71
2022/03/29 08:35:13;;;;;;;;;;;23.80;27.80;;;;;;1551213;74;717;-72
2022/03/29 08:37:14;;;;;;;;;;;23.80;27.80;;;;;;1558871;76;677;-71
2022/03/29 08:39:16;;;;;;;;;;;23.80;27.90;;;;;;1553233;74;730;-71
2022/03/29 08:41:18;;;;;;;;;;;23.80;27.90;;;;;;1559616;74;772;-71
2022/03/29 08:43:20;;;;;;;;;;;23.80;27.90;;;;;;1564834;74;1156;-71
2022/03/29 08:45:25;;;;;;;;;;;23.80;27.80;;;;;;1562035;76;627;-71
2022/03/29 08:47:27;;;;;;;;;;;23.80;27.70;;;;;;1563096;76;745;-70
2022/03/29 08:49:30;;;;;;;;;;;23.80;27.70;;;;;;1564018;76;1942;-72
2022/03/29 08:51:32;;;;;;;;;;;23.70;27.70;;;;;;1562472;74;795;-72
2022/03/29 08:53:53;;;;;;;;;;;23.70;27.70;;;;;;1564538;75;1139;-69
2022/03/29 08:55:55;;;;;;;;;;;23.30;27.40;;;;;;1537480;77;743;-70
2022/03/29 08:57:57;;;;;;;;;;;23.70;27.70;;;;;;1540881;76;846;-70
2022/03/29 08:59:59;;;;;;;;;;;23.70;27.70;;;;;;1536756;77;741;-72
2022/03/29 09:02:03;;;;;;;;;;;23.60;27.60;;;;;;1540934;77;727;-69
2022/03/29 09:04:05;;;;;;;;;;;23.70;27.60;;;;;;1540022;77;1199;-68
2022/03/29 09:06:10;;;;;;;;;;;23.60;27.50;;;;;;1543443;77;741;-68
2022/03/29 09:08:13;;;;;;;;;;;23.70;27.60;;;;;;1543673;77;772;-69
2022/03/29 09:10:15;;;;;;;;;;;23.60;27.60;;;;;;1539174;77;1920;-71
2022/03/29 09:12:18;;;;;;;;;;;23.70;27.70;;;;;;1542576;77;750;-69
2022/03/29 09:14:20;;;;;;;;;;;23.60;27.40;;;;;;1539338;76;1133;-69
2022/03/29 09:16:29;;;;;;;;;;;23.60;27.50;;;;;;1543475;77;699;-69
2022/03/29 09:18:31;;;;;;;;;;;23.60;27.40;;;;;;1543679;76;709;-69
2022/03/29 09:20:33;;;;;;;;;;;23.60;27.50;;;;;;1534557;76;796;-68
2022/03/29 09:22:35;;;;;;;;;;;23.60;27.40;;;;;;1543722;76;707;-69
2022/03/29 09:24:37;;;;;;;;;;;23.60;27.50;;;;;;1530546;76;1065;-68
2022/03/29 09:26:40;;;;;;;;;;;23.60;27.60;;;;;;1530357;77;746;-69
2022/03/29 09:28:42;;;;;;;;;;;23.60;27.50;;;;;;1527645;76;667;-69
2022/03/29 09:30:45;;;;;;;;;;;23.50;27.40;;;;;;1540696;76;1929;-69
2022/03/29 09:33:02;;;;;;;;;;;23.60;27.50;;;;;;1541903;76;750;-68
2022/03/29 09:35:08;;;;;;;;;;;23.60;27.40;;;;;;1531260;76;1141;-70
2022/03/29 09:37:08;;;;;;;;;;;23.50;27.40;;;;;;1540673;76;1432;-70
2022/03/29 09:39:12;;;;;;;;;;;23.50;27.50;;;;;;1525499;77;715;-68
2022/03/29 09:41:32;;;;;;;;;;;23.40;27.30;;;;;;1538659;77;969;-68
2022/03/29 09:43:36;;;;;;;;;;;23.40;27.40;;;;;;1538385;76;1168;-69
2022/03/29 09:45:40;;;;;;;;;;;23.40;27.40;;;;;;1543656;76;662;-71
2022/03/29 09:47:42;;;;;;;;;;;23.50;27.50;;;;;;1532825;76;1398;-68
2022/03/29 09:49:52;;;;;;;;;;;23.50;27.60;;;;;;1541457;76;1940;-66
2022/03/29 09:52:02;;;;;;;;;;;23.40;27.50;;;;;;1539378;76;935;-67
2022/03/29 09:54:04;;;;;;;;;;;23.40;27.30;;;;;;1530454;76;1124;-65
2022/03/29 09:56:06;;;;;;;;;;;23.30;27.30;;;;;;1538808;76;810;-67
2022/03/29 09:58:10;;;;;;;;;;;23.40;27.30;;;;;;1543742;76;738;-66
2022/03/29 10:00:13;;;;;;;;;;;23.40;27.10;;;;;;1542267;77;1852;-65
2022/03/29 10:02:15;;;;;;;;;;;23.30;27.10;;;;;;1535524;77;727;-68
2022/03/29 10:04:17;;;;;;;;;;;23.40;27.10;;;;;;1525017;77;1182;-69
2022/03/29 10:06:21;;;;;;;;;;;23.30;27.10;;;;;;1525184;77;695;-66
2022/03/29 10:10:46;;;;;;;;;;;23.30;27.20;;;;;;1520526;77;1957;-68
2022/03/29 10:12:48;;;;;;;;;;;23.30;27.20;;;;;;1515854;77;790;-67
2022/03/29 10:14:51;;;;;;;;;;;23.30;27.30;;;;;;1517103;77;1156;-67
2022/03/29 10:16:56;;;;;;;;;;;23.30;27.30;;;;;;1519790;77;787;-67
2022/03/29 10:18:59;;;;;;;;;;;23.20;27.30;;;;;;1528109;77;788;-67
2022/03/29 10:21:03;;;;;;;;;;;23.30;27.50;;;;;;1523898;77;784;-68
2022/03/29 10:23:06;;;;;;;;;;;23.30;27.50;;;;;;1525375;76;910;-67
2022/03/29 10:25:08;;;;;;;;;;;23.30;27.50;;;;;;1537297;76;1114;-67
2022/03/29 10:27:10;;;;;;;;;;;23.20;27.50;;;;;;1541980;76;698;-69
2022/03/29 10:29:12;;;;;;;;;;;23.30;27.50;;;;;;1537865;76;736;-66
2022/03/29 10:31:33;;;;;;;;;;;23.20;27.60;;;;;;1542185;76;1940;-67
2022/03/29 10:33:33;;;;;;;;;;;23.20;27.50;;;;;;1539804;76;2062;-67
2022/03/29 10:35:35;;;;;;;;;;;23.20;27.50;;;;;;1542613;76;724;-69
2022/03/29 10:37:44;;;;;;;;;;;23.20;27.50;;;;;;1542855;76;672;-67
2022/03/29 10:39:50;;;;;;;;;;;23.20;27.50;;;;;;1526504;77;1591;-68
2022/03/29 10:41:52;;;;;;;;;;;23.20;27.50;;;;;;1543474;76;766;-67
2022/03/29 10:43:54;;;;;;;;;;;23.10;27.40;;;;;;1538664;76;1162;-67
2022/03/29 10:45:57;;;;;;;;;;;23.20;27.50;;;;;;1542872;76;772;-67
2022/03/29 10:48:03;;;;;;;;;;;23.20;27.50;;;;;;1535572;76;735;-67
2022/03/29 10:50:06;;;;;;;;;;;23.20;27.60;;;;;;1540308;76;1923;-71
2022/03/29 10:52:10;;;;;;;;;;;23.20;27.50;;;;;;1532867;76;755;-67
2022/03/29 10:54:16;;;;;;;;;;;23.20;27.50;;;;;;1514308;77;1116;-67
2022/03/29 10:56:23;;;;;;;;;;;23.20;27.50;;;;;;1533488;77;1042;-67
2022/03/29 10:58:22;;;;;;;;;;;23.10;27.40;;;;;;1542541;76;1588;-67
2022/03/29 11:00:31;;;;;;;;;;;23.10;27.30;;;;;;1543305;77;732;-67
2022/03/29 11:02:27;;;;;;;;;;;23.10;27.30;;;;;;1542467;77;1616;-67
2022/03/29 11:04:29;;;;;;;;;;;23.10;27.40;;;;;;1540396;76;1179;-67
2022/03/29 11:06:31;;;;;;;;;;;23.20;27.40;;;;;;1543592;77;792;-68
2022/03/29 11:08:34;;;;;;;;;;;23.10;27.40;;;;;;1535464;76;681;-68
2022/03/29 11:10:40;;;;;;;;;;;23.20;27.40;;;;;;1542763;76;1944;-67
2022/03/29 11:12:52;;;;;;;;;;;23.20;27.40;;;;;;1531023;77;1816;-67
2022/03/29 11:14:54;;;;;;;;;;;23.20;27.50;;;;;;1533583;76;1122;-67
2022/03/29 11:16:56;;;;;;;;;;;23.10;27.50;;;;;;1543461;77;699;-67
2022/03/29 11:18:59;;;;;;;;;;;23.20;27.40;;;;;;1539052;77;860;-67
2022/03/29 11:21:04;;;;;;;;;;;23.20;27.50;;;;;;1543329;77;787;-67
2022/03/29 11:23:06;;;;;;;;;;;23.10;27.50;;;;;;1528566;76;845;-67
2022/03/29 11:25:16;;;;;;;;;;;23.00;27.40;;;;;;1539561;76;1101;-68
2022/03/29 11:27:16;;;;;;;;;;;23.10;27.50;;;;;;1542388;76;1173;-65
2022/03/29 11:29:18;;;;;;;;;;;23.10;27.40;;;;;;1539038;76;1828;-67
2022/03/29 11:31:20;;;;;;;;;;;23.00;27.30;;;;;;1537610;76;1925;-67
2022/03/29 11:33:24;;;;;;;;;;;23.00;27.20;;;;;;1542431;76;675;-67
2022/03/29 11:35:26;;;;;;;;;;;23.00;27.30;;;;;;1505439;77;1920;-68
2022/03/29 11:37:30;;;;;;;;;;;23.10;27.40;;;;;;1521855;76;750;-66
2022/03/29 11:39:32;;;;;;;;;;;23.10;27.40;;;;;;1525683;76;1801;-66
2022/03/29 11:41:35;;;;;;;;;;;23.00;27.30;;;;;;1520771;76;804;-65
2022/03/29 11:43:37;;;;;;;;;;;23.00;27.30;;;;;;1526368;76;1093;-68
2022/03/29 11:45:41;;;;;;;;;;;23.10;27.30;;;;;;1526529;76;737;-67
2022/03/29 11:47:54;;;;;;;;;;;23.00;27.30;;;;;;1526969;76;777;-66
2022/03/29 11:49:56;;;;;;;;;;;23.10;27.40;;;;;;1518828;76;1073;-66
2022/03/29 11:52:13;;;;;;;;;;;23.00;27.10;;;;;;1526946;76;1944;-68
2022/03/29 11:54:17;;;;;;;;;;;23.00;27.20;;;;;;1524425;76;1138;-67
2022/03/29 11:56:22;;;;;;;;;;;23.00;27.20;;;;;;1503955;78;1904;-67
2022/03/29 11:58:24;;;;;;;;;;;23.00;27.30;;;;;;1517080;76;827;-66
2022/03/29 12:00:27;;;;;;;;;;;23.00;27.30;;;;;;1523541;76;728;-68
2022/03/29 12:02:29;;;;;;;;;;;23.00;27.30;;;;;;1508202;78;900;-66
2022/03/29 12:04:33;;;;;;;;;;;23.00;27.10;;;;;;1518912;76;1163;-67
2022/03/29 12:06:36;;;;;;;;;;;23.00;27.10;;;;;;1521493;76;702;-68
2022/03/29 12:08:57;;;;;;;;;;;23.00;27.10;;;;;;1524743;76;1927;-67
2022/03/29 12:11:01;;;;;;;;;;;23.00;27.00;;;;;;1513671;76;1936;-67
2022/03/29 12:13:03;;;;;;;;;;;22.90;27.10;;;;;;1524660;76;972;-68
2022/03/29 12:15:06;;;;;;;;;;;22.90;27.10;;;;;;1522361;76;1134;-68
2022/03/29 12:17:08;;;;;;;;;;;23.00;27.10;;;;;;1528036;76;721;-67
2022/03/29 12:19:13;;;;;;;;;;;23.00;27.10;;;;;;1533339;76;735;-67
2022/03/29 12:21:16;;;;;;;;;;;23.00;27.00;;;;;;1522708;76;734;-68